createdAt,value
2023-02-27T00:02:54.567Z,75.52
2023-02-27T00:06:30.563Z,75.91
2023-02-27T00:10:18.855Z,75.85
2023-02-27T00:14:05.232Z,75.89
2023-02-27T00:17:53.061Z,75.90
2023-02-27T00:21:40.748Z,76.08
2023-02-27T00:25:28.360Z,76.43
2023-02-27T00:29:17.075Z,76.20
2023-02-27T00:33:05.109Z,76.41
2023-02-27T00:36:52.744Z,76.72
2023-02-27T00:40:40.360Z,76.74
2023-02-27T00:44:16.713Z,76.71
2023-02-27T00:48:04.264Z,76.64
2023-02-27T00:51:51.795Z,76.92
2023-02-27T00:55:39.336Z,77.13
2023-02-27T00:59:27.030Z,77.59
2023-02-27T01:03:14.575Z,77.53
2023-02-27T01:07:01.664Z,77.74
2023-02-27T01:10:49.426Z,77.94
2023-02-27T01:14:37.348Z,78.32
2023-02-27T01:18:27.016Z,78.57
2023-02-27T01:22:08.332Z,79.16
2023-02-27T01:25:57.275Z,78.85
2023-02-27T01:29:45.766Z,79.18
2023-02-27T01:33:33.429Z,79.24
2023-02-27T01:37:21.286Z,79.00
2023-02-27T01:41:08.937Z,79.35
2023-02-27T01:45:23.640Z,79.45
2023-02-27T01:49:36.396Z,79.75
2023-02-27T01:53:16.963Z,79.84
2023-02-27T01:57:07.216Z,79.42
2023-02-27T02:00:54.811Z,79.30
2023-02-27T02:04:42.889Z,79.64
2023-02-27T02:08:34.208Z,79.80
2023-02-27T02:12:25.710Z,80.22
2023-02-27T02:16:25.153Z,80.03
2023-02-27T02:20:28.250Z,80.39
2023-02-27T02:26:03.524Z,80.51
2023-02-27T02:30:21.014Z,80.57
2023-02-27T02:34:40.034Z,80.34
2023-02-27T02:38:41.026Z,80.70
2023-02-27T02:42:34.705Z,80.92
2023-02-27T02:46:17.797Z,81.18
2023-02-27T02:50:12.533Z,81.41
2023-02-27T02:54:47.611Z,81.61
2023-02-27T02:58:47.488Z,82.24
2023-02-27T03:02:38.835Z,82.32
2023-02-27T03:06:32.273Z,82.67
2023-02-27T03:10:27.815Z,82.41
2023-02-27T03:14:12.405Z,82.49
2023-02-27T03:18:06.626Z,82.50
2023-02-27T03:21:59.266Z,82.43
2023-02-27T03:25:47.853Z,82.47
2023-02-27T03:29:42.306Z,82.71
2023-02-27T03:33:33.367Z,82.77
2023-02-27T03:37:28.512Z,82.62
2023-02-27T03:41:25.490Z,82.43
2023-02-27T03:45:22.609Z,82.38
2023-02-27T03:49:10.577Z,82.30
2023-02-27T03:52:58.595Z,82.14
2023-02-27T03:56:51.865Z,82.20
2023-02-27T04:00:39.523Z,81.96
2023-02-27T04:04:28.568Z,82.18
2023-02-27T04:08:42.091Z,82.33
2023-02-27T04:12:54.292Z,82.44
2023-02-27T04:17:01.110Z,82.52
2023-02-27T04:20:55.547Z,82.59
2023-02-27T04:24:53.592Z,82.66
2023-02-27T04:28:46.103Z,83.21
2023-02-27T04:32:32.175Z,83.42
2023-02-27T04:36:20.274Z,83.36
2023-02-27T04:40:12.273Z,83.76
2023-02-27T04:44:01.758Z,84.04
2023-02-27T04:47:53.466Z,84.43
2023-02-27T04:51:37.866Z,84.73
2023-02-27T04:55:30.542Z,84.85
2023-02-27T04:59:11.258Z,85.25
2023-02-27T05:02:44.738Z,85.18
2023-02-27T05:06:36.878Z,85.00
2023-02-27T05:10:31.517Z,84.96
2023-02-27T05:14:17.642Z,85.38
2023-02-27T05:18:01.135Z,85.56
2023-02-27T05:21:56.220Z,86.01
2023-02-27T05:25:51.826Z,85.68
2023-02-27T05:29:48.204Z,85.31
2023-02-27T05:33:33.885Z,85.15
2023-02-27T05:37:26.858Z,85.20
2023-02-27T05:41:19.098Z,85.50
2023-02-27T05:45:12.324Z,85.32
2023-02-27T05:48:59.233Z,85.39
2023-02-27T05:52:31.801Z,85.68
2023-02-27T05:56:20.147Z,85.94
2023-02-27T06:00:03.200Z,85.75
2023-02-27T06:03:44.636Z,85.75
2023-02-27T06:07:17.425Z,85.56
2023-02-27T06:10:50.152Z,85.81
2023-02-27T06:14:25.547Z,85.67
2023-02-27T06:18:15.244Z,85.73
2023-02-27T06:21:46.831Z,85.73
2023-02-27T06:25:19.665Z,85.81
2023-02-27T06:28:57.407Z,85.69
2023-02-27T06:32:45.628Z,85.92
2023-02-27T06:36:30.559Z,85.58
2023-02-27T06:40:23.896Z,85.56
2023-02-27T06:44:14.628Z,85.76
2023-02-27T06:47:45.695Z,85.61
2023-02-27T06:51:24.494Z,85.76
2023-02-27T06:55:13.858Z,85.62
2023-02-27T06:58:51.159Z,85.72
2023-02-27T07:02:35.113Z,85.76
2023-02-27T07:06:19.567Z,85.81
2023-02-27T07:09:50.232Z,85.87
2023-02-27T07:13:21.350Z,85.88
2023-02-27T07:17:18.138Z,85.93
2023-02-27T07:20:56.376Z,85.59
2023-02-27T07:24:38.715Z,85.58
2023-02-27T07:28:26.433Z,85.23
2023-02-27T07:32:08.478Z,85.26
2023-02-27T07:35:46.582Z,85.15
2023-02-27T07:39:26.798Z,84.94
2023-02-27T07:43:05.233Z,84.78
2023-02-27T07:46:35.881Z,84.55
2023-02-27T07:50:23.646Z,84.51
2023-02-27T07:54:02.728Z,84.29
2023-02-27T07:57:40.649Z,84.40
2023-02-27T08:01:16.779Z,84.11
2023-02-27T08:04:48.101Z,83.90
2023-02-27T08:08:25.926Z,83.98
2023-02-27T08:12:04.747Z,83.40
2023-02-27T08:15:37.526Z,83.64
2023-02-27T08:19:08.683Z,83.57
2023-02-27T08:22:38.736Z,83.52
2023-02-27T08:26:16.839Z,83.05
2023-02-27T08:30:06.270Z,83.21
2023-02-27T08:33:36.644Z,83.19
2023-02-27T08:37:21.452Z,82.68
2023-02-27T08:40:53.691Z,81.91
2023-02-27T08:44:36.122Z,81.60
2023-02-27T08:48:24.956Z,81.37
2023-02-27T08:51:53.397Z,81.44
2023-02-27T08:55:34.800Z,81.36
2023-02-27T08:59:11.815Z,80.96
2023-02-27T09:02:52.286Z,80.95
2023-02-27T09:06:38.419Z,80.69
2023-02-27T09:10:17.951Z,80.41
2023-02-27T09:13:45.781Z,79.59
2023-02-27T09:17:22.262Z,79.22
2023-02-27T09:21:10.142Z,78.31
2023-02-27T09:24:52.756Z,78.06
2023-02-27T09:28:31.333Z,77.24
2023-02-27T09:32:10.721Z,78.04
2023-02-27T09:35:43.536Z,76.97
2023-02-27T09:39:26.372Z,75.48
2023-02-27T09:43:35.278Z,76.75
2023-02-27T09:47:14.789Z,77.24
2023-02-27T09:50:50.378Z,77.30
2023-02-27T09:54:26.507Z,76.93
2023-02-27T09:58:09.400Z,76.01
2023-02-27T10:02:06.886Z,73.67
2023-02-27T10:05:55.172Z,73.28
2023-02-27T10:09:44.399Z,72.13
2023-02-27T10:13:31.873Z,71.02
2023-02-27T10:17:12.177Z,70.79
2023-02-27T10:20:56.920Z,70.42
2023-02-27T10:24:48.783Z,70.16
2023-02-27T10:28:24.953Z,69.47
2023-02-27T10:32:12.011Z,69.64
2023-02-27T10:35:52.148Z,71.36
2023-02-27T10:39:51.521Z,71.47
2023-02-27T10:43:23.066Z,70.20
2023-02-27T10:47:16.559Z,68.36
2023-02-27T10:50:53.777Z,67.58
2023-02-27T10:54:31.906Z,68.00
2023-02-27T10:58:19.923Z,69.27
2023-02-27T11:01:53.796Z,69.27
2023-02-27T11:05:40.928Z,67.56
2023-02-27T11:09:23.940Z,65.97
2023-02-27T11:13:10.894Z,66.06
2023-02-27T11:16:55.113Z,65.84
2023-02-27T11:20:43.621Z,66.69
2023-02-27T11:24:23.120Z,67.60
2023-02-27T11:28:25.570Z,67.97
2023-02-27T11:31:59.374Z,67.54
2023-02-27T11:35:35.635Z,66.86
2023-02-27T11:39:06.068Z,66.37
2023-02-27T11:42:38.276Z,66.46
2023-02-27T11:46:46.627Z,66.14
2023-02-27T11:50:29.860Z,64.40
2023-02-27T11:54:22.016Z,62.86
2023-02-27T11:58:16.302Z,64.30
2023-02-27T12:02:12.549Z,63.84
2023-02-27T12:05:54.429Z,63.84
2023-02-27T12:09:45.636Z,63.61
2023-02-27T12:13:37.065Z,62.31
2023-02-27T12:17:30.246Z,63.39
2023-02-27T12:21:17.543Z,62.74
2023-02-27T12:24:56.723Z,63.35
2023-02-27T12:28:53.007Z,63.54
2023-02-27T12:32:45.757Z,64.20
2023-02-27T12:36:28.224Z,64.06
2023-02-27T12:40:20.678Z,63.40
2023-02-27T12:44:04.288Z,63.25
2023-02-27T12:47:52.618Z,61.89
2023-02-27T12:51:51.690Z,63.04
2023-02-27T12:55:32.803Z,63.68
2023-02-27T12:59:09.427Z,62.88
2023-02-27T13:03:00.457Z,63.61
2023-02-27T13:06:51.453Z,63.67
2023-02-27T13:10:33.451Z,62.10
2023-02-27T13:14:24.660Z,61.41
2023-02-27T13:18:03.372Z,61.55
2023-02-27T13:21:56.596Z,59.79
2023-02-27T13:25:39.831Z,58.67
2023-02-27T13:29:39.555Z,57.95
2023-02-27T13:33:23.820Z,58.45
2023-02-27T13:37:05.625Z,57.72
2023-02-27T13:40:53.431Z,58.82
2023-02-27T13:44:50.982Z,59.18
2023-02-27T13:48:42.529Z,59.26
2023-02-27T13:52:32.520Z,59.70
2023-02-27T13:56:23.207Z,59.92
2023-02-27T14:00:05.291Z,58.74
2023-02-27T14:03:43.665Z,59.61
2023-02-27T14:07:27.169Z,60.13
2023-02-27T14:11:02.845Z,60.38
2023-02-27T14:14:53.377Z,59.80
2023-02-27T14:18:58.214Z,59.23
2023-02-27T14:23:20.703Z,59.46
2023-02-27T14:26:55.565Z,59.24
2023-02-27T14:30:42.073Z,59.69
2023-02-27T14:34:21.536Z,59.45
2023-02-27T14:37:49.256Z,59.33
2023-02-27T14:41:38.172Z,58.82
2023-02-27T14:45:20.401Z,59.05
2023-02-27T14:49:19.399Z,58.43
2023-02-27T14:52:52.764Z,58.58
2023-02-27T14:56:29.281Z,58.78
2023-02-27T15:00:22.828Z,58.48
2023-02-27T15:04:02.476Z,58.45
2023-02-27T15:07:35.270Z,57.25
2023-02-27T15:11:20.576Z,57.20
2023-02-27T15:14:58.130Z,57.50
2023-02-27T15:18:28.934Z,57.45
2023-02-27T15:22:05.682Z,57.76
2023-02-27T15:25:36.771Z,57.81
2023-02-27T15:29:10.087Z,56.78
2023-02-27T15:32:44.544Z,58.29
2023-02-27T15:36:26.929Z,57.92
2023-02-27T15:40:09.196Z,58.10
2023-02-27T15:43:39.896Z,56.88
2023-02-27T15:47:15.040Z,56.99
2023-02-27T15:50:48.807Z,57.21
2023-02-27T15:54:22.323Z,57.55
2023-02-27T15:58:03.784Z,56.48
2023-02-27T16:01:53.219Z,56.10
2023-02-27T16:05:36.233Z,57.23
2023-02-27T16:09:26.083Z,57.73
2023-02-27T16:12:57.697Z,58.27
2023-02-27T16:16:56.816Z,58.83
2023-02-27T16:20:47.806Z,59.40
2023-02-27T16:24:34.557Z,59.80
2023-02-27T16:28:05.675Z,60.20
2023-02-27T16:31:57.049Z,60.89
2023-02-27T16:35:36.143Z,60.68
2023-02-27T16:39:15.487Z,60.92
2023-02-27T16:42:48.908Z,61.48
2023-02-27T16:46:36.628Z,61.76
2023-02-27T16:50:21.646Z,61.82
2023-02-27T16:53:58.543Z,61.99
2023-02-27T16:57:35.123Z,62.22
2023-02-27T17:01:25.509Z,62.80
2023-02-27T17:05:10.330Z,63.13
2023-02-27T17:08:52.904Z,62.87
2023-02-27T17:12:29.168Z,63.35
2023-02-27T17:16:18.676Z,63.30
2023-02-27T17:19:49.422Z,63.25
2023-02-27T17:23:21.569Z,63.45
2023-02-27T17:26:52.601Z,63.37
2023-02-27T17:30:21.207Z,63.86
2023-02-27T17:33:48.723Z,64.03
2023-02-27T17:37:22.265Z,64.14
2023-02-27T17:40:59.466Z,64.02
2023-02-27T17:44:40.343Z,64.25
2023-02-27T17:48:10.962Z,64.49
2023-02-27T17:51:43.626Z,64.58
2023-02-27T17:55:32.084Z,64.47
2023-02-27T17:58:57.993Z,64.74
2023-02-27T18:02:31.240Z,64.74
2023-02-27T18:05:59.031Z,64.77
2023-02-27T18:09:33.813Z,64.95
2023-02-27T18:13:12.709Z,64.96
2023-02-27T18:16:51.761Z,65.19
2023-02-27T18:20:40.492Z,65.40
2023-02-27T18:24:18.363Z,65.25
2023-02-27T18:27:48.645Z,65.51
2023-02-27T18:31:27.720Z,65.61
2023-02-27T18:35:03.740Z,65.69
2023-02-27T18:38:42.309Z,65.84
2023-02-27T18:42:20.422Z,66.00
2023-02-27T18:45:55.800Z,65.70
2023-02-27T18:49:36.250Z,66.01
2023-02-27T18:53:13.863Z,66.17
2023-02-27T18:56:53.214Z,66.17
2023-02-27T19:00:37.724Z,66.25
2023-02-27T19:04:10.918Z,66.43
2023-02-27T19:07:46.228Z,66.20
2023-02-27T19:11:28.656Z,66.48
2023-02-27T19:15:01.177Z,66.28
2023-02-27T19:18:37.738Z,66.49
2023-02-27T19:22:14.377Z,66.65
2023-02-27T19:25:47.756Z,66.84
2023-02-27T19:29:35.447Z,67.10
2023-02-27T19:33:02.705Z,67.24
2023-02-27T19:36:34.680Z,67.16
2023-02-27T19:40:22.939Z,67.16
2023-02-27T19:43:56.264Z,67.32
2023-02-27T19:47:26.695Z,67.45
2023-02-27T19:50:56.907Z,67.38
2023-02-27T19:54:30.757Z,67.55
2023-02-27T19:58:21.449Z,67.57
2023-02-27T20:01:54.962Z,67.55
2023-02-27T20:05:37.966Z,68.07
2023-02-27T20:09:18.649Z,67.95
2023-02-27T20:12:49.455Z,68.06
2023-02-27T20:16:37.598Z,68.11
2023-02-27T20:20:14.404Z,68.06
2023-02-27T20:24:02.565Z,68.14
2023-02-27T20:27:36.233Z,68.20
2023-02-27T20:31:27.635Z,68.37
2023-02-27T20:35:21.094Z,68.56
2023-02-27T20:39:03.831Z,68.54
2023-02-27T20:42:41.261Z,68.64
2023-02-27T20:46:31.575Z,68.58
2023-02-27T20:49:59.039Z,68.76
2023-02-27T20:53:26.975Z,68.57
2023-02-27T20:56:54.674Z,69.00
2023-02-27T21:00:31.478Z,68.87
2023-02-27T21:04:02.711Z,68.76
2023-02-27T21:07:39.217Z,68.72
2023-02-27T21:11:18.804Z,69.15
2023-02-27T21:14:56.666Z,69.15
2023-02-27T21:18:45.174Z,69.10
2023-02-27T21:22:17.301Z,69.15
2023-02-27T21:25:58.713Z,69.35
2023-02-27T21:29:31.043Z,69.26
2023-02-27T21:33:07.398Z,69.47
2023-02-27T21:36:55.480Z,69.66
2023-02-27T21:40:27.159Z,69.72
2023-02-27T21:44:17.202Z,70.01
2023-02-27T21:47:54.844Z,69.96
2023-02-27T21:51:38.345Z,70.03
2023-02-27T21:55:18.143Z,69.93
2023-02-27T21:58:56.173Z,70.10
2023-02-27T22:02:23.859Z,70.17
2023-02-27T22:06:00.588Z,70.16
2023-02-27T22:09:53.145Z,70.20
2023-02-27T22:13:32.306Z,70.28
2023-02-27T22:17:34.508Z,70.20
2023-02-27T22:21:25.428Z,70.16
2023-02-27T22:25:15.080Z,70.09
2023-02-27T22:28:56.419Z,70.26
2023-02-27T22:32:33.759Z,70.12
2023-02-27T22:36:11.228Z,70.19
2023-02-27T22:39:41.594Z,70.37
2023-02-27T22:43:14.041Z,70.41
2023-02-27T22:46:47.157Z,70.39
2023-02-27T22:50:27.725Z,70.56
2023-02-27T22:54:01.558Z,70.59
2023-02-27T22:57:34.443Z,70.70
2023-02-27T23:01:18.499Z,70.82
2023-02-27T23:04:49.361Z,70.88
2023-02-27T23:08:47.019Z,71.04
2023-02-27T23:12:45.249Z,71.16
2023-02-27T23:16:22.075Z,71.34
2023-02-27T23:20:00.552Z,71.41
2023-02-27T23:23:41.918Z,71.61
2023-02-27T23:27:29.280Z,71.54
2023-02-27T23:31:10.494Z,71.81
2023-02-27T23:34:49.601Z,71.71
2023-02-27T23:38:37.704Z,71.92
2023-02-27T23:42:25.102Z,72.11
2023-02-27T23:46:15.522Z,72.14
2023-02-27T23:49:52.287Z,72.45
2023-02-27T23:53:25.142Z,72.53
2023-02-27T23:57:12.641Z,72.71
